Port Royal, Virginia
Current Conditions -  °F | °C
As of 1:55 AM on Monday 22 Dec 2014 (Local Time) from KEZF Reporting Station
Overcast Overcast  
Wind Chill: 32°   Ceiling: 5000
Heat Index: 32°   Visibility: 10mi
Dew Point: 30°   Wind: 0mph
Humidity: 91%   Direction: NA
Pressure: 30.31"   Gusts: NA
Location:  38.17°N, 77.19°W
Report Text: KEZF 220655Z AUTO 00000KT 10SM OVC050 00/M01 A3031 RMK AO2 T00011012
Loading
Personal Weather Stations






























Interactive Weather Map New forecast layout! Learn more

10-Day Weather Forecast

Advertisements
Track Severe Weather on mobile